createdAt,value
2023-01-01T00:03:04.565Z,80.25
2023-01-01T00:06:13.057Z,81.50
2023-01-01T00:09:36.867Z,76.32
2023-01-01T00:12:42.255Z,81.35
2023-01-01T00:15:47.939Z,82.97
2023-01-01T00:18:53.589Z,74.18
2023-01-01T00:22:02.119Z,72.97
2023-01-01T00:25:16.259Z,76.10
2023-01-01T00:28:21.820Z,75.25
2023-01-01T00:31:27.488Z,80.13
2023-01-01T00:34:33.078Z,73.25
2023-01-01T00:37:43.313Z,79.38
2023-01-01T00:40:51.951Z,79.75
2023-01-01T00:43:57.219Z,96.53
2023-01-01T00:47:02.498Z,99.63
2023-01-01T00:50:08.239Z,95.65
2023-01-01T00:53:14.105Z,76.95
2023-01-01T00:56:19.634Z,86.35
2023-01-01T00:59:28.948Z,76.03
2023-01-01T01:02:34.779Z,80.28
2023-01-01T01:05:40.490Z,79.13
2023-01-01T01:08:46.997Z,92.35
2023-01-01T01:12:18.453Z,78.75
2023-01-01T01:15:19.273Z,92.68
2023-01-01T01:18:25.246Z,90.63
2023-01-01T01:21:34.579Z,90.70
2023-01-01T01:24:40.272Z,85.97
2023-01-01T01:27:45.972Z,96.47
2023-01-01T01:30:51.166Z,88.03
2023-01-01T01:33:57.898Z,98.15
2023-01-01T01:37:03.383Z,80.50
2023-01-01T01:40:09.573Z,81.93
2023-01-01T01:43:45.736Z,79.45
2023-01-01T01:46:51.786Z,85.72
2023-01-01T01:50:29.757Z,85.82
2023-01-01T01:53:41.953Z,85.68
2023-01-01T01:56:47.485Z,80.43
2023-01-01T01:59:57.052Z,78.35
2023-01-01T02:03:11.646Z,89.07
2023-01-01T02:06:19.510Z,94.88
2023-01-01T02:09:25.380Z,94.75
2023-01-01T02:12:30.642Z,88.70
2023-01-01T02:15:42.444Z,81.15
2023-01-01T02:19:21.394Z,82.85
2023-01-01T02:23:04.719Z,73.97
2023-01-01T02:26:39.181Z,81.78
2023-01-01T02:30:00.477Z,80.07
2023-01-01T02:33:12.699Z,81.05
2023-01-01T02:36:20.222Z,91.53
2023-01-01T02:39:32.787Z,85.43
2023-01-01T02:42:38.404Z,76.80
2023-01-01T02:45:43.985Z,80.03
2023-01-01T02:48:53.652Z,81.95
2023-01-01T02:52:09.187Z,91.05
2023-01-01T02:55:48.090Z,89.03
2023-01-01T02:59:42.409Z,83.82
2023-01-01T03:03:06.769Z,85.43
2023-01-01T03:06:25.479Z,91.22
2023-01-01T03:09:59.693Z,87.10
2023-01-01T03:13:30.186Z,91.55
2023-01-01T03:16:44.146Z,91.80
2023-01-01T03:19:52.748Z,96.35
2023-01-01T03:23:02.649Z,99.07
2023-01-01T03:26:13.006Z,100.80
2023-01-01T03:29:19.093Z,99.03
2023-01-01T03:33:00.971Z,91.00
2023-01-01T03:36:07.710Z,89.35
2023-01-01T03:39:16.984Z,83.40
2023-01-01T03:42:36.724Z,96.50
2023-01-01T03:45:48.681Z,86.75
2023-01-01T03:52:33.830Z,91.72
2023-01-01T03:55:47.473Z,96.20
2023-01-01T03:59:28.328Z,90.97
2023-01-01T04:02:55.758Z,86.13
2023-01-01T04:06:03.455Z,91.25
2023-01-01T04:09:18.070Z,91.03
2023-01-01T04:12:23.792Z,94.22
2023-01-01T04:15:28.979Z,90.47
2023-01-01T04:18:34.248Z,93.95
2023-01-01T04:21:39.509Z,99.72
2023-01-01T04:24:44.757Z,88.90
2023-01-01T04:27:49.794Z,98.50
2023-01-01T04:33:59.500Z,101.88
2023-01-01T04:37:09.730Z,94.70
2023-01-01T04:40:18.645Z,97.72
2023-01-01T04:43:24.023Z,99.20
2023-01-01T04:46:29.589Z,89.38
2023-01-01T04:49:35.178Z,99.50
2023-01-01T04:52:40.948Z,99.90
2023-01-01T04:55:46.465Z,101.93
2023-01-01T04:58:51.967Z,105.18
2023-01-01T05:01:58.026Z,113.32
2023-01-01T05:05:03.507Z,108.22
2023-01-01T05:08:09.276Z,105.63
2023-01-01T05:11:17.678Z,102.55
2023-01-01T05:14:23.528Z,104.70
2023-01-01T05:17:29.055Z,98.47
2023-01-01T05:20:35.363Z,109.22
2023-01-01T05:23:40.955Z,108.40
2023-01-01T05:26:46.747Z,108.28
2023-01-01T05:29:52.050Z,113.10
2023-01-01T05:32:57.656Z,111.93
2023-01-01T05:36:05.699Z,107.63
2023-01-01T05:39:13.277Z,110.22
2023-01-01T05:42:19.199Z,113.68
2023-01-01T05:45:24.987Z,111.13
2023-01-01T05:48:30.910Z,114.78
2023-01-01T05:54:41.579Z,109.57
2023-01-01T05:57:47.137Z,105.32
2023-01-01T06:00:53.294Z,103.95
2023-01-01T06:04:00.250Z,108.88
2023-01-01T06:07:05.431Z,108.18
2023-01-01T06:10:10.962Z,104.10
2023-01-01T06:13:16.599Z,108.32
2023-01-01T06:16:21.987Z,106.65
2023-01-01T06:19:27.535Z,110.05
2023-01-01T06:22:32.952Z,115.20
2023-01-01T06:25:38.289Z,114.13
2023-01-01T06:28:45.343Z,104.40
2023-01-01T06:31:50.554Z,106.40
2023-01-01T06:34:56.241Z,105.43
2023-01-01T06:38:01.775Z,112.07
2023-01-01T06:41:11.048Z,103.82
2023-01-01T06:44:16.829Z,110.85
2023-01-01T06:47:22.458Z,105.47
2023-01-01T06:50:28.140Z,112.72
2023-01-01T06:53:34.333Z,122.45
2023-01-01T06:56:40.084Z,107.28
2023-01-01T06:59:45.297Z,110.35
2023-01-01T07:02:51.179Z,104.68
2023-01-01T07:05:56.574Z,105.28
2023-01-01T07:09:02.487Z,111.00
2023-01-01T07:12:08.420Z,112.47
2023-01-01T07:15:14.023Z,109.30
2023-01-01T07:18:21.380Z,100.65
2023-01-01T07:21:33.366Z,113.15
2023-01-01T07:24:40.078Z,116.28
2023-01-01T07:27:45.566Z,111.50
2023-01-01T07:30:53.975Z,104.78
2023-01-01T07:33:59.361Z,114.35
2023-01-01T07:37:04.693Z,103.40
2023-01-01T07:40:10.584Z,107.10
2023-01-01T07:43:16.351Z,105.63
2023-01-01T07:46:22.264Z,106.88
2023-01-01T07:49:27.602Z,111.07
2023-01-01T07:52:33.354Z,105.20
2023-01-01T07:55:39.138Z,104.13
2023-01-01T07:58:44.550Z,110.25
2023-01-01T08:01:51.472Z,93.82
2023-01-01T08:04:57.042Z,100.25
2023-01-01T08:08:02.451Z,95.50
2023-01-01T08:11:07.881Z,95.95
2023-01-01T08:14:14.277Z,97.22
2023-01-01T08:17:19.412Z,94.93
2023-01-01T08:20:25.059Z,97.32
2023-01-01T08:23:31.185Z,91.82
2023-01-01T08:26:37.464Z,99.43
2023-01-01T08:29:43.891Z,94.32
2023-01-01T08:32:49.667Z,94.20
2023-01-01T08:35:55.344Z,87.30
2023-01-01T08:39:00.516Z,89.78
2023-01-01T08:42:11.840Z,89.40
2023-01-01T08:48:28.865Z,86.00
2023-01-01T08:51:36.479Z,95.82
2023-01-01T08:54:42.068Z,84.63
2023-01-01T08:57:47.653Z,79.15
2023-01-01T09:00:54.490Z,85.47
2023-01-01T09:04:00.176Z,83.28
2023-01-01T09:07:05.678Z,88.80
2023-01-01T09:10:10.839Z,82.78
2023-01-01T09:13:19.392Z,83.05
2023-01-01T09:16:25.025Z,80.15
2023-01-01T09:19:30.374Z,86.55
2023-01-01T09:22:36.148Z,86.20
2023-01-01T09:25:41.572Z,84.40
2023-01-01T09:28:46.884Z,82.10
2023-01-01T09:31:52.552Z,79.57
2023-01-01T09:34:58.171Z,77.72
2023-01-01T09:38:03.621Z,86.30
2023-01-01T09:41:23.841Z,85.47
2023-01-01T09:44:56.628Z,80.28
2023-01-01T09:48:11.912Z,79.13
2023-01-01T09:51:20.197Z,71.65
2023-01-01T09:54:38.451Z,81.57
2023-01-01T09:57:43.640Z,71.85
2023-01-01T10:00:56.691Z,74.90
2023-01-01T10:04:26.515Z,77.75
2023-01-01T10:08:04.144Z,77.05
2023-01-01T10:11:17.258Z,79.95
2023-01-01T10:15:04.988Z,79.68
2023-01-01T10:18:20.561Z,69.00
2023-01-01T10:21:34.128Z,73.75
2023-01-01T10:24:50.421Z,68.97
2023-01-01T10:28:28.764Z,67.57
2023-01-01T10:31:42.745Z,68.28
2023-01-01T10:34:50.741Z,70.47
2023-01-01T10:37:59.859Z,70.25
2023-01-01T10:41:17.119Z,68.20
2023-01-01T10:44:31.844Z,73.13
2023-01-01T10:47:37.357Z,74.32
2023-01-01T10:50:52.559Z,79.85
2023-01-01T10:53:58.437Z,74.40
2023-01-01T10:57:17.306Z,76.60
2023-01-01T11:00:27.299Z,71.10
2023-01-01T11:03:33.679Z,81.93
2023-01-01T11:06:42.728Z,73.97
2023-01-01T11:10:02.557Z,74.97
2023-01-01T11:13:21.081Z,76.70
2023-01-01T11:16:29.250Z,79.07
2023-01-01T11:19:45.685Z,76.40
2023-01-01T11:22:56.592Z,79.90
2023-01-01T11:26:13.992Z,77.95
2023-01-01T11:29:27.226Z,78.28
2023-01-01T11:32:36.015Z,68.88
2023-01-01T11:35:53.052Z,76.70
2023-01-01T11:39:18.791Z,72.22
2023-01-01T11:42:27.916Z,78.55
2023-01-01T11:45:42.788Z,72.72
2023-01-01T11:48:48.496Z,70.15
2023-01-01T11:51:54.069Z,64.43
2023-01-01T11:55:21.485Z,68.07
2023-01-01T11:58:45.386Z,64.20
2023-01-01T12:01:55.263Z,66.65
2023-01-01T12:05:26.175Z,63.17
2023-01-01T12:08:40.127Z,63.03
2023-01-01T12:11:53.081Z,66.13
2023-01-01T12:15:16.041Z,61.50
2023-01-01T12:18:29.316Z,60.05
2023-01-01T12:21:36.779Z,65.25
2023-01-01T12:24:42.850Z,58.20
2023-01-01T12:28:04.012Z,58.47
2023-01-01T12:31:29.001Z,56.40
2023-01-01T12:35:00.110Z,61.22
2023-01-01T12:38:14.537Z,58.93
2023-01-01T12:42:02.433Z,59.88
2023-01-01T12:45:30.510Z,61.08
2023-01-01T12:48:48.192Z,59.75
2023-01-01T12:52:13.810Z,62.63
2023-01-01T12:55:47.591Z,62.67
2023-01-01T12:58:59.228Z,58.50
2023-01-01T13:02:14.752Z,63.75
2023-01-01T13:05:29.328Z,59.33
2023-01-01T13:08:37.171Z,66.15
2023-01-01T13:11:45.668Z,65.93
2023-01-01T13:14:51.554Z,59.58
2023-01-01T13:17:56.752Z,65.65
2023-01-01T13:21:17.069Z,61.72
2023-01-01T13:24:25.568Z,64.00
2023-01-01T13:27:58.466Z,65.60
2023-01-01T13:31:04.246Z,62.50
2023-01-01T13:34:31.008Z,65.20
2023-01-01T13:37:44.321Z,61.78
2023-01-01T13:40:51.468Z,60.10
2023-01-01T13:43:59.577Z,58.92
2023-01-01T13:47:27.809Z,58.17
2023-01-01T13:51:39.957Z,58.70
2023-01-01T13:55:14.657Z,54.15
2023-01-01T13:58:43.588Z,55.70
2023-01-01T14:01:55.261Z,58.47
2023-01-01T14:08:36.355Z,47.53
2023-01-01T14:12:08.375Z,49.33
2023-01-01T14:15:27.797Z,52.78
2023-01-01T14:18:57.100Z,46.00
2023-01-01T14:22:25.682Z,45.67
2023-01-01T14:25:30.975Z,48.72
2023-01-01T14:28:55.600Z,51.72
2023-01-01T14:32:12.723Z,45.38
2023-01-01T14:35:36.657Z,46.17
2023-01-01T14:38:49.835Z,47.60
2023-01-01T14:42:16.743Z,46.78
2023-01-01T14:45:24.675Z,50.08
2023-01-01T14:48:48.709Z,48.08
2023-01-01T14:52:01.051Z,46.40
2023-01-01T14:55:26.511Z,49.47
2023-01-01T14:58:31.701Z,49.38
2023-01-01T15:01:55.844Z,49.13
2023-01-01T15:05:35.695Z,46.95
2023-01-01T15:09:00.339Z,48.58
2023-01-01T15:12:05.708Z,49.88
2023-01-01T15:15:37.898Z,50.05
2023-01-01T15:18:50.800Z,49.95
2023-01-01T15:21:56.851Z,46.88
2023-01-01T15:25:03.456Z,51.03
2023-01-01T15:28:20.904Z,46.85
2023-01-01T15:31:42.547Z,47.97
2023-01-01T15:34:47.856Z,44.30
2023-01-01T15:37:59.386Z,46.53
2023-01-01T15:44:36.767Z,47.22
2023-01-01T15:47:42.156Z,47.35
2023-01-01T15:50:50.512Z,52.35
2023-01-01T15:54:05.161Z,47.72
2023-01-01T15:57:20.662Z,47.65
2023-01-01T16:00:29.704Z,52.20
2023-01-01T16:03:37.204Z,44.63
2023-01-01T16:06:47.547Z,49.17
2023-01-01T16:09:57.724Z,52.05
2023-01-01T16:13:04.055Z,56.22
2023-01-01T16:16:30.309Z,47.47
2023-01-01T16:19:35.633Z,49.15
2023-01-01T16:22:40.953Z,47.58
2023-01-01T16:25:46.709Z,44.60
2023-01-01T16:28:52.206Z,46.25
2023-01-01T16:31:57.825Z,45.72
2023-01-01T16:35:11.534Z,48.70
2023-01-01T16:38:17.468Z,47.63
2023-01-01T16:41:22.602Z,46.95
2023-01-01T16:44:27.800Z,51.05
2023-01-01T16:47:33.217Z,46.75
2023-01-01T16:50:38.689Z,46.17
2023-01-01T16:53:44.432Z,41.03
2023-01-01T16:56:50.183Z,45.08
2023-01-01T16:59:56.390Z,48.45
2023-01-01T17:03:01.802Z,48.75
2023-01-01T17:06:09.983Z,51.00
2023-01-01T17:09:16.157Z,52.15
2023-01-01T17:12:21.448Z,60.30
2023-01-01T17:15:26.947Z,55.47
2023-01-01T17:19:04.278Z,60.38
2023-01-01T17:21:58.558Z,57.10
2023-01-01T17:25:04.608Z,58.55
2023-01-01T17:28:10.116Z,55.33
2023-01-01T17:31:20.238Z,54.08
2023-01-01T17:34:25.910Z,65.93
2023-01-01T17:37:33.278Z,63.60
2023-01-01T17:40:38.541Z,57.50
2023-01-01T17:43:47.877Z,57.30
2023-01-01T17:46:55.285Z,65.68
2023-01-01T17:50:01.293Z,62.80
2023-01-01T17:53:12.090Z,62.45
2023-01-01T17:56:20.736Z,54.70
2023-01-01T17:59:26.077Z,56.78
2023-01-01T18:02:33.830Z,57.72
2023-01-01T18:05:39.189Z,53.88
2023-01-01T18:08:44.504Z,58.03
2023-01-01T18:11:50.194Z,60.28
2023-01-01T18:14:55.595Z,61.72
2023-01-01T18:18:01.105Z,58.22
2023-01-01T18:21:19.475Z,65.05
2023-01-01T18:24:24.725Z,63.20
2023-01-01T18:27:30.333Z,64.35
2023-01-01T18:30:37.027Z,64.60
2023-01-01T18:33:43.907Z,69.43
2023-01-01T18:36:49.256Z,89.43
2023-01-01T18:39:59.321Z,83.18
2023-01-01T18:43:19.733Z,77.22
2023-01-01T18:46:25.406Z,80.13
2023-01-01T18:49:31.524Z,75.43
2023-01-01T18:52:36.656Z,81.00
2023-01-01T18:55:41.823Z,78.57
2023-01-01T18:58:49.589Z,78.80
2023-01-01T19:01:55.214Z,79.50
2023-01-01T19:05:17.158Z,73.55
2023-01-01T19:08:23.540Z,82.20
2023-01-01T19:11:30.498Z,72.65
2023-01-01T19:14:35.919Z,80.70
2023-01-01T19:17:41.153Z,79.20
2023-01-01T19:20:47.086Z,80.32
2023-01-01T19:23:53.608Z,82.55
2023-01-01T19:27:10.656Z,84.53
2023-01-01T19:30:25.515Z,82.68
2023-01-01T19:33:31.732Z,78.45
2023-01-01T19:36:37.698Z,90.45
2023-01-01T19:39:44.174Z,79.20
2023-01-01T19:42:50.827Z,84.95
2023-01-01T19:45:56.168Z,86.85
2023-01-01T19:49:01.835Z,79.85
2023-01-01T19:52:07.708Z,77.63
2023-01-01T19:55:13.178Z,71.82
2023-01-01T19:58:20.167Z,81.03
2023-01-01T20:01:25.773Z,85.13
2023-01-01T20:04:31.193Z,75.72
2023-01-01T20:07:36.659Z,73.47
2023-01-01T20:10:42.127Z,72.88
2023-01-01T20:13:47.930Z,73.65
2023-01-01T20:16:53.851Z,76.50
2023-01-01T20:19:59.343Z,66.45
2023-01-01T20:23:04.628Z,73.38
2023-01-01T20:26:09.927Z,70.57
2023-01-01T20:29:21.509Z,70.65
2023-01-01T20:32:28.339Z,73.35
2023-01-01T20:35:51.790Z,71.55
2023-01-01T20:38:57.112Z,67.38
2023-01-01T20:42:03.036Z,60.03
2023-01-01T20:45:09.132Z,63.28
2023-01-01T20:48:19.586Z,62.00
2023-01-01T20:51:25.656Z,61.63
2023-01-01T20:54:31.013Z,63.10
2023-01-01T20:57:36.406Z,60.47
2023-01-01T21:00:41.940Z,68.68
2023-01-01T21:03:47.502Z,62.03
2023-01-01T21:06:53.341Z,61.08
2023-01-01T21:09:58.936Z,63.20
2023-01-01T21:13:04.563Z,61.63
2023-01-01T21:16:34.948Z,60.60
2023-01-01T21:19:40.990Z,70.68
2023-01-01T21:22:48.039Z,72.93
2023-01-01T21:25:53.833Z,78.55
2023-01-01T21:29:00.331Z,83.63
2023-01-01T21:32:34.204Z,75.97
2023-01-01T21:35:39.460Z,79.10
2023-01-01T21:38:46.287Z,75.82
2023-01-01T21:41:51.927Z,76.90
2023-01-01T21:44:58.233Z,65.90
2023-01-01T21:48:17.297Z,71.15
2023-01-01T21:51:31.905Z,71.30
2023-01-01T21:54:38.715Z,73.88
2023-01-01T21:57:45.581Z,70.80
2023-01-01T22:00:51.254Z,77.85
2023-01-01T22:04:24.848Z,78.85
2023-01-01T22:11:13.526Z,82.60
2023-01-01T22:14:23.191Z,72.07
2023-01-01T22:17:36.923Z,78.80
2023-01-01T22:20:45.587Z,70.13
2023-01-01T22:23:56.830Z,73.80
2023-01-01T22:27:28.410Z,79.38
2023-01-01T22:30:34.084Z,69.07
2023-01-01T22:33:44.496Z,77.65
2023-01-01T22:36:50.295Z,70.80
2023-01-01T22:39:55.599Z,75.35
2023-01-01T22:43:05.669Z,69.53
2023-01-01T22:46:39.600Z,82.55
2023-01-01T22:49:51.929Z,74.88
2023-01-01T22:52:57.821Z,71.93
2023-01-01T22:56:03.681Z,73.93
2023-01-01T22:59:09.471Z,74.10
2023-01-01T23:02:15.318Z,75.03
2023-01-01T23:05:20.907Z,74.85
2023-01-01T23:08:26.735Z,72.28
2023-01-01T23:11:32.423Z,78.20
2023-01-01T23:14:56.404Z,77.53
2023-01-01T23:18:01.575Z,85.80
2023-01-01T23:21:15.387Z,76.50
2023-01-01T23:24:24.408Z,83.40
2023-01-01T23:27:29.890Z,89.85
2023-01-01T23:30:35.389Z,86.43
2023-01-01T23:33:41.536Z,87.75
2023-01-01T23:36:46.834Z,84.53
2023-01-01T23:39:52.297Z,83.82
2023-01-01T23:42:58.933Z,85.25
2023-01-01T23:46:04.575Z,85.60
2023-01-01T23:49:10.311Z,94.70
2023-01-01T23:52:15.921Z,86.57
2023-01-01T23:55:21.808Z,87.05
2023-01-01T23:58:27.394Z,84.50
